createdAt,value
2023-02-24T00:00:32.840Z,131.82
2023-02-24T00:05:35.024Z,134.93
2023-02-24T00:08:02.431Z,166.93
2023-02-24T00:10:30.351Z,151.50
2023-02-24T00:12:57.460Z,173.65
2023-02-24T00:15:24.573Z,127.80
2023-02-24T00:17:51.646Z,159.95
2023-02-24T00:20:19.245Z,166.55
2023-02-24T00:22:46.485Z,154.48
2023-02-24T00:25:14.770Z,174.98
2023-02-24T00:27:42.718Z,171.98
2023-02-24T00:30:12.165Z,152.32
2023-02-24T00:32:39.431Z,166.53
2023-02-24T00:35:07.323Z,143.82
2023-02-24T00:37:34.401Z,151.35
2023-02-24T00:40:01.438Z,129.25
2023-02-24T00:42:30.118Z,145.20
2023-02-24T00:44:57.258Z,124.95
2023-02-24T00:47:24.271Z,116.35
2023-02-24T00:49:51.377Z,142.82
2023-02-24T00:52:20.812Z,130.63
2023-02-24T00:54:49.580Z,127.68
2023-02-24T00:57:21.706Z,124.25
2023-02-24T00:59:51.850Z,117.47
2023-02-24T01:02:20.604Z,113.38
2023-02-24T01:04:50.147Z,134.00
2023-02-24T01:07:17.315Z,121.93
2023-02-24T01:09:44.492Z,111.60
2023-02-24T01:12:39.150Z,141.25
2023-02-24T01:15:09.360Z,121.47
2023-02-24T01:17:38.400Z,117.85
2023-02-24T01:20:17.268Z,103.65
2023-02-24T01:22:47.097Z,102.05
2023-02-24T01:25:16.723Z,105.20
2023-02-24T01:27:43.818Z,101.43
2023-02-24T01:30:16.414Z,123.45
2023-02-24T01:32:44.380Z,101.63
2023-02-24T01:35:12.324Z,114.93
2023-02-24T01:37:40.055Z,97.80
2023-02-24T01:40:21.500Z,125.68
2023-02-24T01:42:50.035Z,102.22
2023-02-24T01:45:21.585Z,99.88
2023-02-24T01:47:49.545Z,105.25
2023-02-24T01:50:21.965Z,107.55
2023-02-24T01:52:51.661Z,94.47
2023-02-24T01:55:29.422Z,90.47
2023-02-24T01:57:58.603Z,84.93
2023-02-24T02:00:52.125Z,114.40
2023-02-24T02:03:35.650Z,107.82
2023-02-24T02:06:09.382Z,100.38
2023-02-24T02:08:39.551Z,86.88
2023-02-24T02:11:09.403Z,99.28
2023-02-24T02:13:40.207Z,94.68
2023-02-24T02:16:37.568Z,82.82
2023-02-24T02:19:23.041Z,79.55
2023-02-24T02:22:08.704Z,78.30
2023-02-24T02:25:20.849Z,78.05
2023-02-24T02:28:03.156Z,77.60
2023-02-24T02:30:45.383Z,72.25
2023-02-24T02:33:36.962Z,82.68
2023-02-24T02:36:13.929Z,78.65
2023-02-24T02:38:59.444Z,81.47
2023-02-24T02:41:35.345Z,75.78
2023-02-24T02:44:20.430Z,74.72
2023-02-24T02:47:13.859Z,65.75
2023-02-24T02:49:53.680Z,69.22
2023-02-24T02:52:43.267Z,68.65
2023-02-24T02:55:16.299Z,70.47
2023-02-24T02:57:48.345Z,66.03
2023-02-24T03:00:23.465Z,69.63
2023-02-24T03:02:58.506Z,74.65
2023-02-24T03:05:31.894Z,69.95
2023-02-24T03:08:04.959Z,63.58
2023-02-24T03:10:34.521Z,63.40
2023-02-24T03:13:06.326Z,59.88
2023-02-24T03:15:34.727Z,64.70
2023-02-24T03:18:11.544Z,62.03
2023-02-24T03:20:52.053Z,65.18
2023-02-24T03:23:26.186Z,81.70
2023-02-24T03:26:08.058Z,69.43
2023-02-24T03:28:43.201Z,79.32
2023-02-24T03:31:23.897Z,81.55
2023-02-24T03:34:03.845Z,86.60
2023-02-24T03:36:33.445Z,88.17
2023-02-24T03:39:02.281Z,69.88
2023-02-24T03:41:41.267Z,89.45
2023-02-24T03:44:11.318Z,80.60
2023-02-24T03:49:16.865Z,71.70
2023-02-24T03:52:03.507Z,71.67
2023-02-24T03:55:15.387Z,70.72
2023-02-24T03:58:26.024Z,75.25
2023-02-24T04:01:12.036Z,80.10
2023-02-24T04:03:57.816Z,85.70
2023-02-24T04:06:53.950Z,74.88
2023-02-24T04:09:48.444Z,76.45
2023-02-24T04:12:40.220Z,83.55
2023-02-24T04:15:22.894Z,74.97
2023-02-24T04:17:57.768Z,72.65
2023-02-24T04:20:32.654Z,80.25
2023-02-24T04:23:27.037Z,76.28
2023-02-24T04:25:56.523Z,81.82
2023-02-24T04:28:27.598Z,75.78
2023-02-24T04:31:06.120Z,70.45
2023-02-24T04:33:35.894Z,76.53
2023-02-24T04:36:03.300Z,85.82
2023-02-24T04:38:34.496Z,78.43
2023-02-24T04:41:01.733Z,83.55
2023-02-24T04:43:29.744Z,70.45
2023-02-24T04:45:56.993Z,71.47
2023-02-24T04:48:24.115Z,67.65
2023-02-24T04:50:55.464Z,90.22
2023-02-24T04:53:31.214Z,76.30
2023-02-24T04:56:08.504Z,83.50
2023-02-24T04:58:38.579Z,85.15
2023-02-24T05:01:11.247Z,82.68
2023-02-24T05:03:42.635Z,82.82
2023-02-24T05:06:16.328Z,84.05
2023-02-24T05:08:43.856Z,77.32
2023-02-24T05:11:19.512Z,69.82
2023-02-24T05:13:47.264Z,75.68
2023-02-24T05:16:17.953Z,67.88
2023-02-24T05:18:45.276Z,87.57
2023-02-24T05:21:34.189Z,68.72
2023-02-24T05:24:11.503Z,76.35
2023-02-24T05:26:42.042Z,78.55
2023-02-24T05:29:11.239Z,85.43
2023-02-24T05:31:38.784Z,72.55
2023-02-24T05:34:08.361Z,74.30
2023-02-24T05:36:40.839Z,65.30
2023-02-24T05:39:12.229Z,70.72
2023-02-24T05:41:42.331Z,73.97
2023-02-24T05:44:13.472Z,66.25
2023-02-24T05:46:44.760Z,71.95
2023-02-24T05:49:24.254Z,86.53
2023-02-24T05:51:55.970Z,72.17
2023-02-24T05:54:35.965Z,66.38
2023-02-24T05:57:09.580Z,68.22
2023-02-24T05:59:36.688Z,74.60
2023-02-24T06:02:09.535Z,78.68
2023-02-24T06:04:41.281Z,91.43
2023-02-24T06:07:19.583Z,82.55
2023-02-24T06:09:50.532Z,114.18
2023-02-24T06:12:18.797Z,88.25
2023-02-24T06:14:46.418Z,85.70
2023-02-24T06:17:17.261Z,107.97
2023-02-24T06:19:45.185Z,96.50
2023-02-24T06:22:16.863Z,111.20
2023-02-24T06:24:44.590Z,73.15
2023-02-24T06:27:18.040Z,97.03
2023-02-24T06:29:48.097Z,85.05
2023-02-24T06:32:15.309Z,110.13
2023-02-24T06:34:42.784Z,87.32
2023-02-24T06:37:14.542Z,92.65
2023-02-24T06:39:42.221Z,117.43
2023-02-24T06:42:10.727Z,115.03
2023-02-24T06:44:40.238Z,107.50
2023-02-24T06:47:10.837Z,73.60
2023-02-24T06:49:37.972Z,85.78
2023-02-24T06:52:06.098Z,100.63
2023-02-24T06:54:36.190Z,82.50
2023-02-24T06:59:32.430Z,63.30
2023-02-24T07:02:02.209Z,83.50
2023-02-24T07:04:29.948Z,82.03
2023-02-24T07:07:03.440Z,100.70
2023-02-24T07:09:31.465Z,96.47
2023-02-24T07:11:59.683Z,86.18
2023-02-24T07:14:31.119Z,44.72
2023-02-24T07:16:59.868Z,44.38
2023-02-24T07:19:29.708Z,35.70
2023-02-24T07:22:03.914Z,33.28
2023-02-24T07:24:36.226Z,27.83
2023-02-24T07:27:07.773Z,26.23
2023-02-24T07:29:36.131Z,19.70
2023-02-24T07:32:06.067Z,21.60
2023-02-24T07:34:34.263Z,17.83
2023-02-24T07:37:08.491Z,17.60
2023-02-24T07:39:37.766Z,15.18
2023-02-24T07:42:06.915Z,17.25
2023-02-24T07:44:44.919Z,15.13
2023-02-24T07:47:11.993Z,14.23
2023-02-24T07:49:41.257Z,13.88
2023-02-24T07:52:09.144Z,13.82
2023-02-24T07:54:37.439Z,15.75
2023-02-24T07:57:05.922Z,11.98
2023-02-24T07:59:36.034Z,12.45
2023-02-24T08:02:07.813Z,10.85
2023-02-24T08:04:36.555Z,15.50
2023-02-24T08:07:04.515Z,13.00
2023-02-24T08:09:46.054Z,13.43
2023-02-24T08:12:18.460Z,12.88
2023-02-24T08:14:51.254Z,17.30
2023-02-24T08:17:21.704Z,14.38
2023-02-24T08:19:50.883Z,14.88
2023-02-24T08:22:21.358Z,15.93
2023-02-24T08:25:06.062Z,14.40
2023-02-24T08:27:42.374Z,16.27
2023-02-24T08:30:21.622Z,15.70
2023-02-24T08:32:57.034Z,15.47
2023-02-24T08:35:32.804Z,16.60
2023-02-24T08:38:10.501Z,9.90
2023-02-24T08:40:50.316Z,12.35
2023-02-24T08:43:31.106Z,19.45
2023-02-24T08:46:25.815Z,16.80
2023-02-24T08:49:02.174Z,17.08
2023-02-24T08:51:44.126Z,18.13
2023-02-24T08:54:32.187Z,17.38
2023-02-24T08:57:09.736Z,17.25
2023-02-24T08:59:47.769Z,17.52
2023-02-24T09:02:27.404Z,18.25
2023-02-24T09:05:04.013Z,20.10
2023-02-24T09:07:37.524Z,24.30
2023-02-24T09:10:18.058Z,26.30
2023-02-24T09:12:45.744Z,19.88
2023-02-24T09:15:15.665Z,22.90
2023-02-24T09:17:45.267Z,17.58
2023-02-24T09:20:26.105Z,17.88
2023-02-24T09:23:00.828Z,19.15
2023-02-24T09:25:47.230Z,23.60
2023-02-24T09:28:17.644Z,18.85
2023-02-24T09:30:51.655Z,22.40
2023-02-24T09:33:39.923Z,17.73
2023-02-24T09:36:13.233Z,19.02
2023-02-24T09:38:57.931Z,19.88
2023-02-24T09:41:54.922Z,20.08
2023-02-24T09:44:33.993Z,23.25
2023-02-24T09:47:00.958Z,18.77
2023-02-24T09:49:40.269Z,22.60
2023-02-24T09:52:19.172Z,16.77
2023-02-24T09:55:10.879Z,19.42
2023-02-24T09:58:12.400Z,27.92
2023-02-24T10:00:44.755Z,25.85
2023-02-24T10:03:48.323Z,22.33
2023-02-24T10:06:23.888Z,19.17
2023-02-24T10:08:55.327Z,21.95
2023-02-24T10:11:33.432Z,27.23
2023-02-24T10:14:05.663Z,21.88
2023-02-24T10:16:44.522Z,22.48
2023-02-24T10:19:26.537Z,29.02
2023-02-24T10:22:03.466Z,22.15
2023-02-24T10:24:47.617Z,21.33
2023-02-24T10:27:37.484Z,24.60
2023-02-24T10:30:28.186Z,18.55
2023-02-24T10:33:05.611Z,16.25
2023-02-24T10:35:34.444Z,28.10
2023-02-24T10:38:06.873Z,15.25
2023-02-24T10:40:47.107Z,16.20
2023-02-24T10:46:06.500Z,15.93
2023-02-24T10:48:42.252Z,11.48
2023-02-24T10:51:32.210Z,11.13
2023-02-24T10:54:31.684Z,18.42
2023-02-24T10:57:23.168Z,19.23
2023-02-24T11:00:17.973Z,18.55
2023-02-24T11:03:10.516Z,19.73
2023-02-24T11:06:07.318Z,16.58
2023-02-24T11:08:37.094Z,20.27
2023-02-24T11:11:20.630Z,20.77
2023-02-24T11:14:11.014Z,24.10
2023-02-24T11:17:10.609Z,19.15
2023-02-24T11:20:11.187Z,23.77
2023-02-24T11:22:42.206Z,18.13
2023-02-24T11:25:20.009Z,26.65
2023-02-24T11:27:47.807Z,14.32
2023-02-24T11:30:31.699Z,21.17
2023-02-24T11:33:23.724Z,14.38
2023-02-24T11:36:05.418Z,14.05
2023-02-24T11:39:17.223Z,16.98
2023-02-24T11:41:53.363Z,14.40
2023-02-24T11:44:52.532Z,13.15
2023-02-24T11:47:28.191Z,15.75
2023-02-24T11:50:19.381Z,15.38
2023-02-24T11:52:49.839Z,19.13
2023-02-24T11:55:32.728Z,12.95
2023-02-24T11:58:03.184Z,16.75
2023-02-24T12:00:37.023Z,13.00
2023-02-24T12:03:14.152Z,11.57
2023-02-24T12:05:47.284Z,11.00
2023-02-24T12:08:31.318Z,10.80
2023-02-24T12:11:11.733Z,14.05
2023-02-24T12:14:16.170Z,8.63
2023-02-24T12:16:48.233Z,11.95
2023-02-24T12:19:27.967Z,10.15
2023-02-24T12:22:06.405Z,11.20
2023-02-24T12:24:36.359Z,9.70
2023-02-24T12:27:15.760Z,7.25
2023-02-24T12:30:23.202Z,8.90
2023-02-24T12:33:13.557Z,8.70
2023-02-24T12:38:29.927Z,12.02
2023-02-24T12:41:19.116Z,13.77
2023-02-24T12:43:55.636Z,8.77
2023-02-24T12:46:30.206Z,10.80
2023-02-24T12:49:34.913Z,9.30
2023-02-24T12:52:31.058Z,13.93
2023-02-24T12:55:18.662Z,13.80
2023-02-24T12:58:02.130Z,9.75
2023-02-24T13:00:57.939Z,12.65
2023-02-24T13:03:56.753Z,13.75
2023-02-24T13:06:56.983Z,9.68
2023-02-24T13:09:38.215Z,14.07
2023-02-24T13:12:39.142Z,10.20
2023-02-24T13:15:16.434Z,11.05
2023-02-24T13:17:48.706Z,14.27
2023-02-24T13:20:38.192Z,12.18
2023-02-24T13:23:20.231Z,10.65
2023-02-24T13:25:52.920Z,9.32
2023-02-24T13:28:36.424Z,12.45
2023-02-24T13:31:09.417Z,20.42
2023-02-24T13:33:43.135Z,15.38
2023-02-24T13:36:22.253Z,14.10
2023-02-24T13:39:05.918Z,11.48
2023-02-24T13:41:33.039Z,12.82
2023-02-24T13:44:24.368Z,11.45
2023-02-24T13:47:21.679Z,12.82
2023-02-24T13:50:01.018Z,11.30
2023-02-24T13:52:50.443Z,11.38
2023-02-24T13:55:23.154Z,8.90
2023-02-24T13:58:18.128Z,12.18
2023-02-24T14:01:09.664Z,10.43
2023-02-24T14:03:40.434Z,9.85
2023-02-24T14:06:18.208Z,13.07
2023-02-24T14:08:54.589Z,10.95
2023-02-24T14:11:26.262Z,11.18
2023-02-24T14:13:56.176Z,15.50
2023-02-24T14:16:32.839Z,14.45
2023-02-24T14:19:02.743Z,11.68
2023-02-24T14:21:33.588Z,7.05
2023-02-24T14:24:13.696Z,12.25
2023-02-24T14:26:51.032Z,7.13
2023-02-24T14:29:21.491Z,10.52
2023-02-24T14:31:51.492Z,10.55
2023-02-24T14:34:22.174Z,8.93
2023-02-24T14:36:55.323Z,7.45
2023-02-24T14:39:29.576Z,11.30
2023-02-24T14:42:09.861Z,7.72
2023-02-24T14:47:11.594Z,8.45
2023-02-24T14:49:38.812Z,7.65
2023-02-24T14:52:08.729Z,7.47
2023-02-24T14:54:48.239Z,12.90
2023-02-24T14:57:25.182Z,10.07
2023-02-24T14:59:57.844Z,11.70
2023-02-24T15:02:32.333Z,10.95
2023-02-24T15:05:00.397Z,8.50
2023-02-24T15:07:34.191Z,11.15
2023-02-24T15:10:02.934Z,9.02
2023-02-24T15:12:34.100Z,12.57
2023-02-24T15:15:02.881Z,9.55
2023-02-24T15:17:30.630Z,7.65
2023-02-24T15:19:57.994Z,10.43
2023-02-24T15:22:28.481Z,7.50
2023-02-24T15:25:12.818Z,12.65
2023-02-24T15:27:59.818Z,15.82
2023-02-24T15:30:30.076Z,9.90
2023-02-24T15:35:35.138Z,10.50
2023-02-24T15:38:02.715Z,13.93
2023-02-24T15:40:31.526Z,12.05
2023-02-24T15:43:10.906Z,11.85
2023-02-24T15:45:39.868Z,14.93
2023-02-24T15:48:22.305Z,12.20
2023-02-24T15:50:53.099Z,14.90
2023-02-24T15:53:20.516Z,12.50
2023-02-24T15:55:47.794Z,14.20
2023-02-24T15:58:18.814Z,12.35
2023-02-24T16:00:46.478Z,10.25
2023-02-24T16:03:13.684Z,14.15
2023-02-24T16:05:40.938Z,10.73
2023-02-24T16:08:13.944Z,8.45
2023-02-24T16:10:41.624Z,12.75
2023-02-24T16:13:16.989Z,10.63
2023-02-24T16:15:45.612Z,7.95
2023-02-24T16:18:22.547Z,11.80
2023-02-24T16:20:57.265Z,11.88
2023-02-24T16:23:26.553Z,10.93
2023-02-24T16:25:58.085Z,10.20
2023-02-24T16:28:26.840Z,20.08
2023-02-24T16:30:54.371Z,13.50
2023-02-24T16:33:24.794Z,12.95
2023-02-24T16:35:55.197Z,15.35
2023-02-24T16:38:26.739Z,11.85
2023-02-24T16:40:55.200Z,12.88
2023-02-24T16:43:22.435Z,11.27
2023-02-24T16:45:49.974Z,12.73
2023-02-24T16:48:24.370Z,11.82
2023-02-24T16:50:52.056Z,13.50
2023-02-24T16:53:22.862Z,11.73
2023-02-24T16:55:50.901Z,10.93
2023-02-24T16:58:19.471Z,10.73
2023-02-24T17:00:50.105Z,15.20
2023-02-24T17:03:21.356Z,14.18
2023-02-24T17:05:48.872Z,12.55
2023-02-24T17:08:16.360Z,10.38
2023-02-24T17:10:44.812Z,8.93
2023-02-24T17:13:14.053Z,12.05
2023-02-24T17:15:41.765Z,10.90
2023-02-24T17:18:09.648Z,10.35
2023-02-24T17:20:39.003Z,10.75
2023-02-24T17:23:07.250Z,12.50
2023-02-24T17:25:34.341Z,9.85
2023-02-24T17:28:01.499Z,9.13
2023-02-24T17:30:32.127Z,12.45
2023-02-24T17:33:00.222Z,8.75
2023-02-24T17:35:28.921Z,8.55
2023-02-24T17:37:56.449Z,11.90
2023-02-24T17:40:23.853Z,9.13
2023-02-24T17:42:51.568Z,14.50
2023-02-24T17:45:18.897Z,10.13
2023-02-24T17:47:46.061Z,13.38
2023-02-24T17:50:13.677Z,12.85
2023-02-24T17:52:41.299Z,9.27
2023-02-24T17:55:09.339Z,12.70
2023-02-24T17:57:37.180Z,13.05
2023-02-24T18:00:06.247Z,9.07
2023-02-24T18:02:39.809Z,14.95
2023-02-24T18:05:07.929Z,17.90
2023-02-24T18:07:35.294Z,15.90
2023-02-24T18:10:03.109Z,18.10
2023-02-24T18:12:30.348Z,13.70
2023-02-24T18:15:07.807Z,21.75
2023-02-24T18:17:36.664Z,15.43
2023-02-24T18:20:04.757Z,14.75
2023-02-24T18:22:31.935Z,13.25
2023-02-24T18:24:59.630Z,16.00
2023-02-24T18:27:27.238Z,17.63
2023-02-24T18:29:54.951Z,16.25
2023-02-24T18:32:22.248Z,11.95
2023-02-24T18:34:49.690Z,15.20
2023-02-24T18:37:16.873Z,13.73
2023-02-24T18:39:44.064Z,17.73
2023-02-24T18:42:11.941Z,16.58
2023-02-24T18:44:39.212Z,19.02
2023-02-24T18:47:09.902Z,17.27
2023-02-24T18:49:37.615Z,21.17
2023-02-24T18:52:05.699Z,15.00
2023-02-24T18:54:34.175Z,15.13
2023-02-24T18:57:02.164Z,18.50
2023-02-24T18:59:30.176Z,16.75
2023-02-24T19:01:57.437Z,17.88
2023-02-24T19:04:25.406Z,16.27
2023-02-24T19:06:52.613Z,18.75
2023-02-24T19:09:22.955Z,18.48
2023-02-24T19:11:50.569Z,22.20
2023-02-24T19:14:18.012Z,17.80
2023-02-24T19:16:45.652Z,20.23
2023-02-24T19:19:16.672Z,17.83
2023-02-24T19:21:45.741Z,18.42
2023-02-24T19:24:14.128Z,15.02
2023-02-24T19:26:42.950Z,14.85
2023-02-24T19:29:10.803Z,15.88
2023-02-24T19:31:39.019Z,17.17
2023-02-24T19:34:08.623Z,18.17
2023-02-24T19:36:37.360Z,12.93
2023-02-24T19:39:05.830Z,12.68
2023-02-24T19:41:33.128Z,8.50
2023-02-24T19:44:00.311Z,10.32
2023-02-24T19:46:27.822Z,8.77
2023-02-24T19:48:56.677Z,7.45
2023-02-24T19:51:24.425Z,9.38
2023-02-24T19:53:57.029Z,8.05
2023-02-24T19:56:29.703Z,6.38
2023-02-24T19:58:58.940Z,9.02
2023-02-24T20:01:28.298Z,6.10
2023-02-24T20:04:00.372Z,6.78
2023-02-24T20:06:31.586Z,8.23
2023-02-24T20:08:59.571Z,6.97
2023-02-24T20:11:28.993Z,6.28
2023-02-24T20:13:56.584Z,5.40
2023-02-24T20:16:26.259Z,6.15
2023-02-24T20:18:55.586Z,6.93
2023-02-24T20:21:22.916Z,6.28
2023-02-24T20:23:51.229Z,6.55
2023-02-24T20:26:18.882Z,4.53
2023-02-24T20:28:47.563Z,5.65
2023-02-24T20:31:18.810Z,5.50
2023-02-24T20:33:47.098Z,8.48
2023-02-24T20:36:19.778Z,6.18
2023-02-24T20:38:47.685Z,8.02
2023-02-24T20:41:15.421Z,7.88
2023-02-24T20:43:42.695Z,7.00
2023-02-24T20:46:25.885Z,7.28
2023-02-24T20:48:57.596Z,6.70
2023-02-24T20:51:26.460Z,9.52
2023-02-24T20:53:57.960Z,10.57
2023-02-24T20:56:29.987Z,9.23
2023-02-24T20:59:11.036Z,11.20
2023-02-24T21:01:39.496Z,9.10
2023-02-24T21:04:08.953Z,8.18
2023-02-24T21:06:37.293Z,13.50
2023-02-24T21:09:05.113Z,9.45
2023-02-24T21:11:32.360Z,10.18
2023-02-24T21:13:59.698Z,9.38
2023-02-24T21:16:27.633Z,10.65
2023-02-24T21:18:56.483Z,11.75
2023-02-24T21:21:23.635Z,12.73
2023-02-24T21:23:51.532Z,12.88
2023-02-24T21:26:19.582Z,10.43
2023-02-24T21:28:46.898Z,12.50
2023-02-24T21:31:17.270Z,8.15
2023-02-24T21:33:44.937Z,11.07
2023-02-24T21:36:14.384Z,11.30
2023-02-24T21:38:42.013Z,10.30
2023-02-24T21:41:15.001Z,11.73
2023-02-24T21:43:45.718Z,15.15
2023-02-24T21:46:15.805Z,14.73
2023-02-24T21:48:43.307Z,14.57
2023-02-24T21:51:13.839Z,13.00
2023-02-24T21:53:44.004Z,12.55
2023-02-24T21:58:39.886Z,14.30
2023-02-24T22:01:13.559Z,12.23
2023-02-24T22:03:40.939Z,13.05
2023-02-24T22:06:11.106Z,15.20
2023-02-24T22:08:43.536Z,22.05
2023-02-24T22:11:15.629Z,13.88
2023-02-24T22:13:44.250Z,11.65
2023-02-24T22:16:15.741Z,12.02
2023-02-24T22:18:42.992Z,12.65
2023-02-24T22:21:18.958Z,12.68
2023-02-24T22:23:47.818Z,19.10
2023-02-24T22:26:16.539Z,21.10
2023-02-24T22:28:45.147Z,16.27
2023-02-24T22:31:14.275Z,15.98
2023-02-24T22:33:43.091Z,14.63
2023-02-24T22:36:19.255Z,14.98
2023-02-24T22:38:47.167Z,13.60
2023-02-24T22:41:22.816Z,11.30
2023-02-24T22:43:50.781Z,16.67
2023-02-24T22:46:24.635Z,16.38
2023-02-24T22:48:52.190Z,19.38
2023-02-24T22:51:20.091Z,15.35
2023-02-24T22:53:49.254Z,10.40
2023-02-24T22:56:19.000Z,12.10
2023-02-24T22:58:46.557Z,12.07
2023-02-24T23:01:19.450Z,11.80
2023-02-24T23:03:46.860Z,14.13
2023-02-24T23:06:18.652Z,15.27
2023-02-24T23:08:49.359Z,10.77
2023-02-24T23:11:20.018Z,10.55
2023-02-24T23:16:22.527Z,11.15
2023-02-24T23:18:54.088Z,11.50
2023-02-24T23:21:33.996Z,11.57
2023-02-24T23:24:01.888Z,12.20
2023-02-24T23:26:46.797Z,10.05
2023-02-24T23:29:17.466Z,10.82
2023-02-24T23:31:45.113Z,10.23
2023-02-24T23:34:12.508Z,11.23
2023-02-24T23:36:43.869Z,10.73
2023-02-24T23:39:13.635Z,9.75
2023-02-24T23:41:44.542Z,10.18
2023-02-24T23:44:12.625Z,10.68
2023-02-24T23:46:41.857Z,13.60
2023-02-24T23:49:09.190Z,14.65
2023-02-24T23:51:47.721Z,11.77
2023-02-24T23:54:19.459Z,12.30
2023-02-24T23:56:46.826Z,13.45
2023-02-24T23:59:14.166Z,12.38
